Terminal Aerodrome Forecast
Issued by NWS

Home | Current Version | Previous Version | Text Only | Print | Product List | Glossary On
Versions: 1 2 3 4 5 6 7 8 9 10 11 12 13 14 15 16 17 18 19 20 21 22
000
FTUS42 KTBW 201500 AAA
TAFPGD
TAF AMD
KPGD 201520Z 2015/2112 28005KT P6SM SCT025 OVC080
      TEMPO 2015/2018 5SM -RA BKN025
     FM201800 25008KT P6SM VCTS SCT030CB OVC100
     FM210100 VRB04KT P6SM VCSH SCT025 OVC100
     FM210400 VRB02KT P6SM SCT020 BKN100=

USA.gov is the U.S. government's official web portal to all federal, state and local government web resources and services.